sensor_id;sensor_type;location;lat;lon;timestamp;pressure;altitude;pressure_sealevel;temperature;humidity
64967;BME280;51710;38.732;-121.358;2023-03-01T00:02:05;100382.34;;;9.26;96.19
64967;BME280;51710;38.732;-121.358;2023-03-01T00:04:32;100365.25;;;9.28;96.29
64967;BME280;51710;38.732;-121.358;2023-03-01T00:06:58;100365.75;;;9.32;96.15
64967;BME280;51710;38.732;-121.358;2023-03-01T00:09:25;100372.06;;;9.31;95.68
64967;BME280;51710;38.732;-121.358;2023-03-01T00:11:51;100369.59;;;9.29;95.48
64967;BME280;51710;38.732;-121.358;2023-03-01T00:14:17;100366.09;;;9.29;95.71
64967;BME280;51710;38.732;-121.358;2023-03-01T00:16:45;100363.59;;;9.27;95.54
64967;BME280;51710;38.732;-121.358;2023-03-01T00:19:16;100359.72;;;9.22;95.83
64967;BME280;51710;38.732;-121.358;2023-03-01T00:21:44;100361.72;;;9.20;95.81
64967;BME280;51710;38.732;-121.358;2023-03-01T00:24:11;100370.00;;;9.17;95.81
64967;BME280;51710;38.732;-121.358;2023-03-01T00:26:38;100350.41;;;9.18;95.94
64967;BME280;51710;38.732;-121.358;2023-03-01T00:29:04;100356.72;;;9.17;96.46
64967;BME280;51710;38.732;-121.358;2023-03-01T00:31:32;100355.56;;;9.19;96.24
64967;BME280;51710;38.732;-121.358;2023-03-01T00:34:03;100361.38;;;9.23;96.53
64967;BME280;51710;38.732;-121.358;2023-03-01T00:36:35;100401.91;;;9.25;96.31
64967;BME280;51710;38.732;-121.358;2023-03-01T00:39:04;100402.41;;;9.20;96.28
64967;BME280;51710;38.732;-121.358;2023-03-01T00:41:31;100398.50;;;9.06;94.11
64967;BME280;51710;38.732;-121.358;2023-03-01T00:43:59;100403.22;;;8.77;91.32
64967;BME280;51710;38.732;-121.358;2023-03-01T00:46:26;100402.66;;;8.48;90.94
64967;BME280;51710;38.732;-121.358;2023-03-01T00:48:53;100398.47;;;8.28;90.94
64967;BME280;51710;38.732;-121.358;2023-03-01T00:51:22;100388.66;;;8.11;91.76
64967;BME280;51710;38.732;-121.358;2023-03-01T00:53:54;100389.00;;;7.98;92.45
64967;BME280;51710;38.732;-121.358;2023-03-01T00:56:21;100384.00;;;7.95;92.91
64967;BME280;51710;38.732;-121.358;2023-03-01T00:58:47;100377.03;;;7.94;93.68
64967;BME280;51710;38.732;-121.358;2023-03-01T01:01:25;100379.22;;;7.99;94.46
64967;BME280;51710;38.732;-121.358;2023-03-01T01:04:00;100374.16;;;8.06;94.39
64967;BME280;51710;38.732;-121.358;2023-03-01T01:06:30;100376.91;;;8.14;94.45
64967;BME280;51710;38.732;-121.358;2023-03-01T01:08:57;100372.97;;;8.18;94.50
64967;BME280;51710;38.732;-121.358;2023-03-01T01:11:26;100376.97;;;8.22;94.59
64967;BME280;51710;38.732;-121.358;2023-03-01T01:13:54;100379.63;;;8.22;94.38
64967;BME280;51710;38.732;-121.358;2023-03-01T01:16:22;100373.50;;;8.21;94.51
64967;BME280;51710;38.732;-121.358;2023-03-01T01:18:49;100379.63;;;8.22;94.76
64967;BME280;51710;38.732;-121.358;2023-03-01T01:21:22;100372.69;;;8.21;94.73
64967;BME280;51710;38.732;-121.358;2023-03-01T01:23:49;100376.84;;;8.23;94.87
64967;BME280;51710;38.732;-121.358;2023-03-01T01:26:27;100380.19;;;8.25;94.84
64967;BME280;51710;38.732;-121.358;2023-03-01T01:28:54;100372.09;;;8.27;95.10
64967;BME280;51710;38.732;-121.358;2023-03-01T01:31:21;100374.59;;;8.28;95.06
64967;BME280;51710;38.732;-121.358;2023-03-01T01:33:50;100369.97;;;8.30;95.08
64967;BME280;51710;38.732;-121.358;2023-03-01T01:36:17;100374.00;;;8.34;95.05
64967;BME280;51710;38.732;-121.358;2023-03-01T01:38:44;100367.84;;;8.34;95.27
64967;BME280;51710;38.732;-121.358;2023-03-01T01:41:11;100354.44;;;8.35;95.25
64967;BME280;51710;38.732;-121.358;2023-03-01T01:43:44;100352.47;;;8.37;95.21
64967;BME280;51710;38.732;-121.358;2023-03-01T01:46:31;100351.03;;;8.43;95.14
64967;BME280;51710;38.732;-121.358;2023-03-01T01:49:05;100335.78;;;8.45;95.14
64967;BME280;51710;38.732;-121.358;2023-03-01T01:51:39;100340.09;;;8.46;94.99
64967;BME280;51710;38.732;-121.358;2023-03-01T01:54:12;100342.59;;;8.47;94.96
64967;BME280;51710;38.732;-121.358;2023-03-01T01:56:44;100342.47;;;8.49;94.91
64967;BME280;51710;38.732;-121.358;2023-03-01T01:59:12;100330.00;;;8.49;94.99
64967;BME280;51710;38.732;-121.358;2023-03-01T02:01:39;100337.81;;;8.51;94.56
64967;BME280;51710;38.732;-121.358;2023-03-01T02:04:06;100337.00;;;8.50;94.53
64967;BME280;51710;38.732;-121.358;2023-03-01T02:06:36;100326.03;;;8.45;94.52
64967;BME280;51710;38.732;-121.358;2023-03-01T02:09:12;100321.31;;;8.39;93.68
64967;BME280;51710;38.732;-121.358;2023-03-01T02:11:39;100313.13;;;8.33;93.71
64967;BME280;51710;38.732;-121.358;2023-03-01T02:14:06;100311.09;;;8.27;94.37
64967;BME280;51710;38.732;-121.358;2023-03-01T02:16:32;100307.88;;;8.23;94.36
64967;BME280;51710;38.732;-121.358;2023-03-01T02:18:59;100317.13;;;8.19;94.41
64967;BME280;51710;38.732;-121.358;2023-03-01T02:24:15;100309.94;;;8.12;94.73
64967;BME280;51710;38.732;-121.358;2023-03-01T02:26:48;100305.75;;;8.09;94.53
64967;BME280;51710;38.732;-121.358;2023-03-01T02:29:16;100313.19;;;8.06;94.38
64967;BME280;51710;38.732;-121.358;2023-03-01T02:31:42;100322.28;;;8.03;94.57
64967;BME280;51710;38.732;-121.358;2023-03-01T02:34:16;100322.72;;;7.98;94.82
64967;BME280;51710;38.732;-121.358;2023-03-01T02:36:53;100324.72;;;7.96;94.27
64967;BME280;51710;38.732;-121.358;2023-03-01T02:39:25;100313.41;;;7.94;94.91
64967;BME280;51710;38.732;-121.358;2023-03-01T02:41:54;100318.56;;;7.96;94.76
64967;BME280;51710;38.732;-121.358;2023-03-01T02:44:21;100314.91;;;7.97;94.81
64967;BME280;51710;38.732;-121.358;2023-03-01T02:46:51;100312.97;;;7.99;94.93
64967;BME280;51710;38.732;-121.358;2023-03-01T02:49:24;100298.84;;;7.98;94.58
64967;BME280;51710;38.732;-121.358;2023-03-01T02:57:14;100278.28;;;7.92;94.25
64967;BME280;51710;38.732;-121.358;2023-03-01T02:59:41;100278.44;;;7.91;95.15
64967;BME280;51710;38.732;-121.358;2023-03-01T03:02:20;100281.22;;;7.89;95.12
64967;BME280;51710;38.732;-121.358;2023-03-01T03:05:09;100282.03;;;7.90;95.08
64967;BME280;51710;38.732;-121.358;2023-03-01T03:07:38;100288.19;;;7.90;95.05
64967;BME280;51710;38.732;-121.358;2023-03-01T03:10:07;100298.63;;;7.92;95.00
64967;BME280;51710;38.732;-121.358;2023-03-01T03:12:34;100311.72;;;7.93;95.08
64967;BME280;51710;38.732;-121.358;2023-03-01T03:15:00;100318.41;;;7.97;95.09
64967;BME280;51710;38.732;-121.358;2023-03-01T03:17:27;100303.63;;;7.95;95.24
64967;BME280;51710;38.732;-121.358;2023-03-01T03:19:53;100307.81;;;7.97;95.00
64967;BME280;51710;38.732;-121.358;2023-03-01T03:22:19;100298.31;;;7.95;95.48
64967;BME280;51710;38.732;-121.358;2023-03-01T03:24:45;100305.31;;;7.96;95.30
64967;BME280;51710;38.732;-121.358;2023-03-01T03:27:12;100307.59;;;7.91;95.39
64967;BME280;51710;38.732;-121.358;2023-03-01T03:29:38;100307.59;;;7.91;95.71
64967;BME280;51710;38.732;-121.358;2023-03-01T03:32:04;100309.94;;;7.94;95.81
64967;BME280;51710;38.732;-121.358;2023-03-01T03:34:31;100310.47;;;7.97;95.74
64967;BME280;51710;38.732;-121.358;2023-03-01T03:36:57;100303.03;;;8.01;96.00
64967;BME280;51710;38.732;-121.358;2023-03-01T03:39:26;100313.19;;;8.06;95.89
64967;BME280;51710;38.732;-121.358;2023-03-01T03:41:53;100316.34;;;8.09;95.41
64967;BME280;51710;38.732;-121.358;2023-03-01T03:44:21;100319.53;;;8.13;95.25
64967;BME280;51710;38.732;-121.358;2023-03-01T03:46:47;100322.06;;;8.14;95.03
64967;BME280;51710;38.732;-121.358;2023-03-01T03:49:13;100309.09;;;8.11;94.48
64967;BME280;51710;38.732;-121.358;2023-03-01T03:51:39;100306.44;;;8.11;95.02
64967;BME280;51710;38.732;-121.358;2023-03-01T03:54:06;100305.47;;;8.12;95.06
64967;BME280;51710;38.732;-121.358;2023-03-01T03:56:32;100306.59;;;8.10;94.34
64967;BME280;51710;38.732;-121.358;2023-03-01T03:58:58;100302.03;;;8.02;94.54
64967;BME280;51710;38.732;-121.358;2023-03-01T04:01:24;100306.69;;;8.00;94.47
64967;BME280;51710;38.732;-121.358;2023-03-01T04:03:51;100317.56;;;7.97;94.55
64967;BME280;51710;38.732;-121.358;2023-03-01T04:06:20;100320.53;;;7.94;93.83
64967;BME280;51710;38.732;-121.358;2023-03-01T04:08:46;100329.75;;;7.90;93.82
64967;BME280;51710;38.732;-121.358;2023-03-01T04:11:16;100325.06;;;7.84;93.45
64967;BME280;51710;38.732;-121.358;2023-03-01T04:13:54;100328.03;;;7.81;93.45
64967;BME280;51710;38.732;-121.358;2023-03-01T04:16:20;100324.00;;;7.77;91.47
64967;BME280;51710;38.732;-121.358;2023-03-01T04:18:47;100319.44;;;7.69;90.99
64967;BME280;51710;38.732;-121.358;2023-03-01T04:21:14;100328.66;;;7.65;90.22
64967;BME280;51710;38.732;-121.358;2023-03-01T04:23:40;100317.50;;;7.62;88.73
64967;BME280;51710;38.732;-121.358;2023-03-01T04:26:07;100314.47;;;7.57;89.02
64967;BME280;51710;38.732;-121.358;2023-03-01T04:28:35;100314.63;;;7.55;89.06
64967;BME280;51710;38.732;-121.358;2023-03-01T04:31:07;100318.13;;;7.56;89.52
64967;BME280;51710;38.732;-121.358;2023-03-01T04:33:52;100322.72;;;7.54;90.14
64967;BME280;51710;38.732;-121.358;2023-03-01T04:36:21;100324.53;;;7.53;90.71
64967;BME280;51710;38.732;-121.358;2023-03-01T04:38:48;100321.06;;;7.53;90.42
64967;BME280;51710;38.732;-121.358;2023-03-01T04:41:17;100314.25;;;7.50;90.82
64967;BME280;51710;38.732;-121.358;2023-03-01T04:43:44;100325.84;;;7.49;90.95
64967;BME280;51710;38.732;-121.358;2023-03-01T04:46:13;100325.84;;;7.49;91.11
64967;BME280;51710;38.732;-121.358;2023-03-01T04:48:41;100327.34;;;7.52;91.68
64967;BME280;51710;38.732;-121.358;2023-03-01T04:51:09;100320.09;;;7.54;91.47
64967;BME280;51710;38.732;-121.358;2023-03-01T04:53:35;100316.31;;;7.56;91.89
64967;BME280;51710;38.732;-121.358;2023-03-01T04:56:05;100304.56;;;7.59;91.63
64967;BME280;51710;38.732;-121.358;2023-03-01T04:58:32;100296.63;;;7.59;91.13
64967;BME280;51710;38.732;-121.358;2023-03-01T05:00:58;100294.97;;;7.58;91.55
64967;BME280;51710;38.732;-121.358;2023-03-01T05:03:24;100300.56;;;7.55;91.46
64967;BME280;51710;38.732;-121.358;2023-03-01T05:05:53;100300.84;;;7.52;91.30
64967;BME280;51710;38.732;-121.358;2023-03-01T05:08:19;100292.81;;;7.44;91.75
64967;BME280;51710;38.732;-121.358;2023-03-01T05:10:52;100300.91;;;7.42;91.97
64967;BME280;51710;38.732;-121.358;2023-03-01T05:13:20;100299.78;;;7.45;91.99
64967;BME280;51710;38.732;-121.358;2023-03-01T05:15:55;100302.00;;;7.49;92.09
64967;BME280;51710;38.732;-121.358;2023-03-01T05:18:22;100298.88;;;7.54;92.20
64967;BME280;51710;38.732;-121.358;2023-03-01T05:20:52;100300.56;;;7.55;91.72
64967;BME280;51710;38.732;-121.358;2023-03-01T05:23:22;100305.88;;;7.55;91.66
64967;BME280;51710;38.732;-121.358;2023-03-01T05:25:48;100305.88;;;7.55;91.93
64967;BME280;51710;38.732;-121.358;2023-03-01T05:28:19;100306.00;;;7.53;91.47
64967;BME280;51710;38.732;-121.358;2023-03-01T05:30:46;100304.50;;;7.51;91.66
64967;BME280;51710;38.732;-121.358;2023-03-01T05:33:12;100295.00;;;7.48;91.97
64967;BME280;51710;38.732;-121.358;2023-03-01T05:35:40;100299.50;;;7.48;92.19
64967;BME280;51710;38.732;-121.358;2023-03-01T05:38:08;100308.09;;;7.50;92.04
64967;BME280;51710;38.732;-121.358;2023-03-01T05:40:35;100304.50;;;7.51;91.67
64967;BME280;51710;38.732;-121.358;2023-03-01T05:43:01;100295.56;;;7.52;91.58
64967;BME280;51710;38.732;-121.358;2023-03-01T05:45:31;100294.59;;;7.53;92.10
64967;BME280;51710;38.732;-121.358;2023-03-01T05:47:58;100290.25;;;7.52;91.27
64967;BME280;51710;38.732;-121.358;2023-03-01T05:50:27;100293.22;;;7.49;91.42
64967;BME280;51710;38.732;-121.358;2023-03-01T05:53:06;100285.56;;;7.46;91.69
64967;BME280;51710;38.732;-121.358;2023-03-01T05:55:35;100276.78;;;7.45;91.07
64967;BME280;51710;38.732;-121.358;2023-03-01T05:58:04;100285.84;;;7.43;91.19
64967;BME280;51710;38.732;-121.358;2023-03-01T06:00:31;100287.81;;;7.41;91.58
64967;BME280;51710;38.732;-121.358;2023-03-01T06:02:59;100285.75;;;7.35;91.04
64967;BME280;51710;38.732;-121.358;2023-03-01T06:05:26;100273.94;;;7.29;91.54
64967;BME280;51710;38.732;-121.358;2023-03-01T06:07:52;100270.44;;;7.29;91.12
64967;BME280;51710;38.732;-121.358;2023-03-01T06:10:20;100271.75;;;7.25;91.49
64967;BME280;51710;38.732;-121.358;2023-03-01T06:12:47;100259.22;;;7.17;91.41
64967;BME280;51710;38.732;-121.358;2023-03-01T06:15:15;100257.03;;;7.13;91.22
64967;BME280;51710;38.732;-121.358;2023-03-01T06:17:43;100256.91;;;7.05;91.02
64967;BME280;51710;38.732;-121.358;2023-03-01T06:20:19;100258.47;;;6.98;91.12
64967;BME280;51710;38.732;-121.358;2023-03-01T06:22:46;100252.09;;;6.91;91.51
64967;BME280;51710;38.732;-121.358;2023-03-01T06:25:15;100256.59;;;6.80;91.57
64967;BME280;51710;38.732;-121.358;2023-03-01T06:27:42;100250.22;;;6.73;91.88
64967;BME280;51710;38.732;-121.358;2023-03-01T06:30:10;100254.13;;;6.69;91.60
64967;BME280;51710;38.732;-121.358;2023-03-01T06:32:38;100260.28;;;6.60;91.72
64967;BME280;51710;38.732;-121.358;2023-03-01T06:35:09;100249.44;;;6.54;92.05
64967;BME280;51710;38.732;-121.358;2023-03-01T06:37:36;100254.59;;;6.46;92.11
64967;BME280;51710;38.732;-121.358;2023-03-01T06:40:03;100258.66;;;6.40;92.13
64967;BME280;51710;38.732;-121.358;2023-03-01T06:42:38;100259.22;;;6.34;91.75
64967;BME280;51710;38.732;-121.358;2023-03-01T06:45:06;100257.84;;;6.30;91.95
64967;BME280;51710;38.732;-121.358;2023-03-01T06:47:33;100254.78;;;6.25;92.00
64967;BME280;51710;38.732;-121.358;2023-03-01T06:50:00;100253.41;;;6.21;91.59
64967;BME280;51710;38.732;-121.358;2023-03-01T06:52:26;100254.09;;;6.14;91.70
64967;BME280;51710;38.732;-121.358;2023-03-01T06:54:53;100249.38;;;6.08;91.73
64967;BME280;51710;38.732;-121.358;2023-03-01T06:57:19;100251.06;;;5.99;92.46
64967;BME280;51710;38.732;-121.358;2023-03-01T06:59:47;100243.97;;;5.90;92.11
64967;BME280;51710;38.732;-121.358;2023-03-01T07:02:14;100239.22;;;5.84;92.23
64967;BME280;51710;38.732;-121.358;2023-03-01T07:04:41;100240.72;;;5.77;92.53
64967;BME280;51710;38.732;-121.358;2023-03-01T07:07:07;100239.50;;;5.71;92.04
64967;BME280;51710;38.732;-121.358;2023-03-01T07:09:34;100243.38;;;5.67;92.52
64967;BME280;51710;38.732;-121.358;2023-03-01T07:12:01;100235.88;;;5.63;93.10
64967;BME280;51710;38.732;-121.358;2023-03-01T07:14:27;100240.31;;;5.62;92.98
64967;BME280;51710;38.732;-121.358;2023-03-01T07:16:54;100235.31;;;5.59;92.73
64967;BME280;51710;38.732;-121.358;2023-03-01T07:19:20;100240.84;;;5.56;92.75
64967;BME280;51710;38.732;-121.358;2023-03-01T07:21:47;100241.13;;;5.53;92.68
64967;BME280;51710;38.732;-121.358;2023-03-01T07:24:14;100244.75;;;5.52;92.53
64967;BME280;51710;38.732;-121.358;2023-03-01T07:26:40;100246.69;;;5.50;92.74
64967;BME280;51710;38.732;-121.358;2023-03-01T07:29:07;100251.28;;;5.48;92.50
64967;BME280;51710;38.732;-121.358;2023-03-01T07:31:35;100256.69;;;5.47;92.46
64967;BME280;51710;38.732;-121.358;2023-03-01T07:34:02;100260.00;;;5.39;92.24
64967;BME280;51710;38.732;-121.358;2023-03-01T07:36:29;100259.72;;;5.33;92.37
64967;BME280;51710;38.732;-121.358;2023-03-01T07:38:55;100260.38;;;5.25;92.26
64967;BME280;51710;38.732;-121.358;2023-03-01T07:41:21;100253.25;;;5.16;91.98
64967;BME280;51710;38.732;-121.358;2023-03-01T07:43:47;100253.97;;;5.09;92.70
64967;BME280;51710;38.732;-121.358;2023-03-01T07:46:14;100249.91;;;5.05;92.97
64967;BME280;51710;38.732;-121.358;2023-03-01T07:48:40;100258.09;;;5.02;92.91
64967;BME280;51710;38.732;-121.358;2023-03-01T07:51:07;100247.69;;;5.00;92.94
64967;BME280;51710;38.732;-121.358;2023-03-01T07:53:33;100247.78;;;4.99;93.19
64967;BME280;51710;38.732;-121.358;2023-03-01T07:56:06;100240.84;;;4.98;93.05
64967;BME280;51710;38.732;-121.358;2023-03-01T07:58:37;100250.00;;;4.94;92.38
64967;BME280;51710;38.732;-121.358;2023-03-01T08:01:06;100249.25;;;4.82;92.45
64967;BME280;51710;38.732;-121.358;2023-03-01T08:03:33;100242.84;;;4.75;92.73
64967;BME280;51710;38.732;-121.358;2023-03-01T08:06:01;100246.47;;;4.74;92.87
64967;BME280;51710;38.732;-121.358;2023-03-01T08:08:28;100241.31;;;4.73;92.96
64967;BME280;51710;38.732;-121.358;2023-03-01T08:10:59;100242.41;;;4.70;93.03
64967;BME280;51710;38.732;-121.358;2023-03-01T08:13:26;100245.91;;;4.71;92.74
64967;BME280;51710;38.732;-121.358;2023-03-01T08:15:53;100244.47;;;4.67;93.28
64967;BME280;51710;38.732;-121.358;2023-03-01T08:18:20;100240.44;;;4.63;93.11
64967;BME280;51710;38.732;-121.358;2023-03-01T08:20:47;100242.63;;;4.57;92.62
64967;BME280;51710;38.732;-121.358;2023-03-01T08:23:13;100240.78;;;4.48;92.76
64967;BME280;51710;38.732;-121.358;2023-03-01T08:25:39;100243.94;;;4.42;93.06
64967;BME280;51710;38.732;-121.358;2023-03-01T08:28:06;100243.09;;;4.42;93.32
64967;BME280;51710;38.732;-121.358;2023-03-01T08:30:33;100253.25;;;4.46;93.58
64967;BME280;51710;38.732;-121.358;2023-03-01T08:33:00;100256.84;;;4.45;93.49
64967;BME280;51710;38.732;-121.358;2023-03-01T08:35:26;100252.78;;;4.41;93.13
64967;BME280;51710;38.732;-121.358;2023-03-01T08:37:52;100250.28;;;4.40;93.23
64967;BME280;51710;38.732;-121.358;2023-03-01T08:40:18;100247.78;;;4.38;93.07
64967;BME280;51710;38.732;-121.358;2023-03-01T08:42:45;100253.78;;;4.40;93.39
64967;BME280;51710;38.732;-121.358;2023-03-01T08:45:12;100250.44;;;4.38;93.09
64967;BME280;51710;38.732;-121.358;2023-03-01T08:47:39;100240.97;;;4.36;93.17
64967;BME280;51710;38.732;-121.358;2023-03-01T08:50:06;100238.59;;;4.33;93.10
64967;BME280;51710;38.732;-121.358;2023-03-01T08:52:33;100243.44;;;4.28;92.86
64967;BME280;51710;38.732;-121.358;2023-03-01T08:54:59;100237.56;;;4.24;92.49
64967;BME280;51710;38.732;-121.358;2023-03-01T08:57:27;100238.59;;;4.12;92.15
64967;BME280;51710;38.732;-121.358;2023-03-01T08:59:53;100238.66;;;4.01;92.50
64967;BME280;51710;38.732;-121.358;2023-03-01T09:02:21;100243.47;;;3.96;92.85
64967;BME280;51710;38.732;-121.358;2023-03-01T09:04:48;100235.25;;;3.90;92.84
64967;BME280;51710;38.732;-121.358;2023-03-01T09:07:14;100238.03;;;3.88;93.13
64967;BME280;51710;38.732;-121.358;2023-03-01T09:09:40;100237.03;;;3.89;93.10
64967;BME280;51710;38.732;-121.358;2023-03-01T09:12:06;100241.59;;;3.87;93.17
64967;BME280;51710;38.732;-121.358;2023-03-01T09:14:33;100241.50;;;3.89;92.99
64967;BME280;51710;38.732;-121.358;2023-03-01T09:16:59;100238.97;;;3.87;92.84
64967;BME280;51710;38.732;-121.358;2023-03-01T09:19:28;100240.06;;;3.85;92.55
64967;BME280;51710;38.732;-121.358;2023-03-01T09:21:55;100234.47;;;3.78;92.63
64967;BME280;51710;38.732;-121.358;2023-03-01T09:24:23;100233.19;;;3.73;92.56
64967;BME280;51710;38.732;-121.358;2023-03-01T09:26:50;100240.72;;;3.66;92.26
64967;BME280;51710;38.732;-121.358;2023-03-01T09:29:18;100243.50;;;3.65;92.86
64967;BME280;51710;38.732;-121.358;2023-03-01T09:31:44;100240.03;;;3.64;92.91
64967;BME280;51710;38.732;-121.358;2023-03-01T09:34:11;100251.97;;;3.68;93.11
64967;BME280;51710;38.732;-121.358;2023-03-01T09:36:37;100252.69;;;3.70;93.16
64967;BME280;51710;38.732;-121.358;2023-03-01T09:39:04;100246.34;;;3.73;93.05
64967;BME280;51710;38.732;-121.358;2023-03-01T09:41:58;100255.19;;;3.72;93.20
64967;BME280;51710;38.732;-121.358;2023-03-01T09:44:29;100255.91;;;3.74;92.49
64967;BME280;51710;38.732;-121.358;2023-03-01T09:46:57;100268.16;;;3.64;91.72
64967;BME280;51710;38.732;-121.358;2023-03-01T09:49:35;100265.94;;;3.48;91.89
64967;BME280;51710;38.732;-121.358;2023-03-01T09:52:41;100272.91;;;3.38;91.63
64967;BME280;51710;38.732;-121.358;2023-03-01T09:55:14;100284.03;;;3.30;91.80
64967;BME280;51710;38.732;-121.358;2023-03-01T09:57:55;100285.94;;;3.28;92.36
64967;BME280;51710;38.732;-121.358;2023-03-01T10:00:43;100286.53;;;3.32;92.11
64967;BME280;51710;38.732;-121.358;2023-03-01T10:08:56;100284.16;;;3.07;91.96
64967;BME280;51710;38.732;-121.358;2023-03-01T10:11:49;100286.09;;;3.05;92.37
64967;BME280;51710;38.732;-121.358;2023-03-01T10:17:14;100282.75;;;3.03;92.84
64967;BME280;51710;38.732;-121.358;2023-03-01T10:19:45;100285.97;;;3.06;92.52
64967;BME280;51710;38.732;-121.358;2023-03-01T10:22:15;100286.69;;;3.08;92.80
64967;BME280;51710;38.732;-121.358;2023-03-01T10:24:44;100288.47;;;3.08;92.93
64967;BME280;51710;38.732;-121.358;2023-03-01T10:27:22;100290.00;;;3.10;93.05
64967;BME280;51710;38.732;-121.358;2023-03-01T10:32:27;100279.88;;;3.17;92.61
64967;BME280;51710;38.732;-121.358;2023-03-01T10:34:54;100282.63;;;3.15;92.76
64967;BME280;51710;38.732;-121.358;2023-03-01T10:37:21;100290.59;;;3.14;91.93
64967;BME280;51710;38.732;-121.358;2023-03-01T10:40:05;100289.66;;;3.04;91.98
64967;BME280;51710;38.732;-121.358;2023-03-01T10:42:38;100291.09;;;2.97;91.14
64967;BME280;51710;38.732;-121.358;2023-03-01T10:48:23;100282.38;;;2.74;91.99
64967;BME280;51710;38.732;-121.358;2023-03-01T10:51:06;100280.84;;;2.72;91.75
64967;BME280;51710;38.732;-121.358;2023-03-01T10:53:48;100279.38;;;2.68;92.18
64967;BME280;51710;38.732;-121.358;2023-03-01T10:56:15;100273.16;;;2.69;91.97
64967;BME280;51710;38.732;-121.358;2023-03-01T10:58:58;100273.53;;;2.64;91.97
64967;BME280;51710;38.732;-121.358;2023-03-01T11:01:27;100266.69;;;2.62;92.01
64967;BME280;51710;38.732;-121.358;2023-03-01T11:06:39;100265.16;;;2.59;91.90
64967;BME280;51710;38.732;-121.358;2023-03-01T11:09:20;100260.25;;;2.55;91.33
64967;BME280;51710;38.732;-121.358;2023-03-01T11:11:52;100259.78;;;2.39;91.06
64967;BME280;51710;38.732;-121.358;2023-03-01T11:14:22;100270.13;;;2.29;91.40
64967;BME280;51710;38.732;-121.358;2023-03-01T11:17:00;100266.28;;;2.22;91.56
64967;BME280;51710;38.732;-121.358;2023-03-01T11:19:26;100261.88;;;2.22;92.02
64967;BME280;51710;38.732;-121.358;2023-03-01T11:22:00;100261.59;;;2.14;91.60
64967;BME280;51710;38.732;-121.358;2023-03-01T11:24:51;100258.50;;;2.09;91.27
64967;BME280;51710;38.732;-121.358;2023-03-01T11:27:25;100259.91;;;2.02;91.19
64967;BME280;51710;38.732;-121.358;2023-03-01T11:30:22;100255.25;;;1.95;91.80
64967;BME280;51710;38.732;-121.358;2023-03-01T11:35:47;100256.97;;;1.83;92.12
64967;BME280;51710;38.732;-121.358;2023-03-01T11:38:25;100246.47;;;1.83;91.98
64967;BME280;51710;38.732;-121.358;2023-03-01T11:44:01;100254.47;;;1.82;91.93
64967;BME280;51710;38.732;-121.358;2023-03-01T11:46:36;100263.91;;;1.84;91.93
64967;BME280;51710;38.732;-121.358;2023-03-01T12:04:20;100273.91;;;1.56;91.73
64967;BME280;51710;38.732;-121.358;2023-03-01T12:07:17;100285.88;;;1.60;92.20
64967;BME280;51710;38.732;-121.358;2023-03-01T12:21:14;100304.28;;;1.71;91.96
64967;BME280;51710;38.732;-121.358;2023-03-01T12:26:35;100312.78;;;1.74;91.90
64967;BME280;51710;38.732;-121.358;2023-03-01T12:37:41;100327.44;;;1.77;91.06
64967;BME280;51710;38.732;-121.358;2023-03-01T12:45:54;100342.72;;;1.59;90.27
64967;BME280;51710;38.732;-121.358;2023-03-01T12:48:42;100343.69;;;1.58;90.27
64967;BME280;51710;38.732;-121.358;2023-03-01T12:51:15;100354.31;;;1.57;90.30
64967;BME280;51710;38.732;-121.358;2023-03-01T12:53:48;100362.47;;;1.52;90.32
64967;BME280;51710;38.732;-121.358;2023-03-01T12:56:26;100358.19;;;1.51;90.48
64967;BME280;51710;38.732;-121.358;2023-03-01T13:13:20;100379.47;;;1.47;91.02
64967;BME280;51710;38.732;-121.358;2023-03-01T13:15:46;100384.44;;;1.51;90.86
64967;BME280;51710;38.732;-121.358;2023-03-01T13:20:47;100404.78;;;1.48;90.81
64967;BME280;51710;38.732;-121.358;2023-03-01T13:33:47;100412.97;;;1.43;90.13
64967;BME280;51710;38.732;-121.358;2023-03-01T13:39:32;100433.88;;;1.32;90.59
64967;BME280;51710;38.732;-121.358;2023-03-01T13:42:45;100445.41;;;1.30;90.56
64967;BME280;51710;38.732;-121.358;2023-03-01T13:45:37;100447.72;;;1.34;91.04
64967;BME280;51710;38.732;-121.358;2023-03-01T13:48:36;100448.34;;;1.38;91.10
64967;BME280;51710;38.732;-121.358;2023-03-01T13:51:09;100449.28;;;1.37;90.55
64967;BME280;51710;38.732;-121.358;2023-03-01T13:53:45;100452.00;;;1.35;90.51
64967;BME280;51710;38.732;-121.358;2023-03-01T13:56:16;100460.72;;;1.36;90.55
64967;BME280;51710;38.732;-121.358;2023-03-01T13:58:51;100469.50;;;1.35;90.58
64967;BME280;51710;38.732;-121.358;2023-03-01T14:01:26;100480.84;;;1.35;90.98
64967;BME280;51710;38.732;-121.358;2023-03-01T14:03:53;100484.44;;;1.34;90.95
64967;BME280;51710;38.732;-121.358;2023-03-01T14:06:29;100495.84;;;1.33;90.25
64967;BME280;51710;38.732;-121.358;2023-03-01T14:14:42;100497.84;;;1.04;90.19
64967;BME280;51710;38.732;-121.358;2023-03-01T14:20:02;100512.94;;;1.01;89.91
64967;BME280;51710;38.732;-121.358;2023-03-01T14:22:33;100513.31;;;0.95;89.69
64967;BME280;51710;38.732;-121.358;2023-03-01T14:25:14;100523.16;;;0.91;89.72
64967;BME280;51710;38.732;-121.358;2023-03-01T14:27:42;100522.31;;;0.91;89.96
64967;BME280;51710;38.732;-121.358;2023-03-01T14:30:21;100514.56;;;0.89;90.14
64967;BME280;51710;38.732;-121.358;2023-03-01T14:32:58;100517.28;;;0.88;89.99
64967;BME280;51710;38.732;-121.358;2023-03-01T14:35:29;100525.16;;;0.88;89.83
64967;BME280;51710;38.732;-121.358;2023-03-01T14:37:56;100528.63;;;0.88;90.00
64967;BME280;51710;38.732;-121.358;2023-03-01T14:42:57;100526.22;;;0.98;90.65